createdAt,value
2022-09-09T00:00:39.569Z,1.80
2022-09-09T00:03:20.669Z,1.48
2022-09-09T00:06:03.325Z,1.90
2022-09-09T00:08:45.465Z,1.40
2022-09-09T00:11:18.376Z,1.92
2022-09-09T00:13:50.325Z,3.03
2022-09-09T00:16:24.546Z,2.22
2022-09-09T00:19:04.815Z,1.67
2022-09-09T00:21:39.625Z,1.70
2022-09-09T00:24:28.992Z,1.48
2022-09-09T00:27:07.848Z,2.10
2022-09-09T00:29:43.785Z,1.92
2022-09-09T00:32:17.598Z,1.95
2022-09-09T00:34:51.977Z,2.03
2022-09-09T00:37:22.020Z,2.10
2022-09-09T00:39:52.902Z,2.20
2022-09-09T00:42:27.536Z,2.30
2022-09-09T00:45:26.992Z,2.55
2022-09-09T00:47:54.966Z,2.85
2022-09-09T00:50:56.283Z,2.00
2022-09-09T00:53:28.730Z,1.90
2022-09-09T00:56:08.321Z,1.38
2022-09-09T00:58:35.368Z,1.60
2022-09-09T01:01:09.711Z,1.45
2022-09-09T01:03:40.092Z,1.48
2022-09-09T01:06:32.232Z,1.63
2022-09-09T01:09:16.532Z,1.90
2022-09-09T01:12:01.959Z,1.83
2022-09-09T01:14:37.845Z,2.55
2022-09-09T01:17:15.900Z,3.20
2022-09-09T01:19:45.424Z,2.75
2022-09-09T01:22:23.505Z,3.00
2022-09-09T01:25:20.843Z,3.40
2022-09-09T01:28:03.418Z,3.67
2022-09-09T01:30:40.284Z,3.38
2022-09-09T01:33:15.887Z,3.67
2022-09-09T01:35:49.711Z,2.67
2022-09-09T01:38:18.994Z,3.38
2022-09-09T01:40:48.062Z,3.63
2022-09-09T01:43:15.881Z,3.05
2022-09-09T01:45:44.658Z,2.97
2022-09-09T01:48:11.735Z,2.78
2022-09-09T01:50:48.040Z,2.50
2022-09-09T01:53:17.866Z,3.03
2022-09-09T01:56:16.656Z,2.90
2022-09-09T01:59:11.132Z,3.00
2022-09-09T02:01:48.567Z,2.95
2022-09-09T02:04:28.294Z,2.45
2022-09-09T02:06:58.002Z,3.30
2022-09-09T02:09:31.083Z,1.98
2022-09-09T02:12:29.042Z,2.72
2022-09-09T02:15:04.957Z,2.35
2022-09-09T02:17:43.151Z,3.00
2022-09-09T02:20:15.623Z,2.70
2022-09-09T02:22:54.875Z,1.88
2022-09-09T02:25:26.928Z,2.60
2022-09-09T02:28:01.330Z,2.00
2022-09-09T02:30:33.259Z,3.17
2022-09-09T02:33:04.854Z,3.67
2022-09-09T02:35:44.966Z,4.22
2022-09-09T02:38:15.948Z,2.88
2022-09-09T02:40:51.570Z,4.65
2022-09-09T02:43:19.543Z,6.38
2022-09-09T02:46:08.998Z,7.05
2022-09-09T02:48:52.628Z,4.15
2022-09-09T02:51:44.369Z,4.63
2022-09-09T02:54:31.750Z,5.25
2022-09-09T02:57:12.039Z,4.35
2022-09-09T02:59:41.219Z,3.28
2022-09-09T03:02:11.147Z,2.65
2022-09-09T03:04:39.529Z,3.72
2022-09-09T03:07:08.330Z,4.05
2022-09-09T03:09:35.783Z,3.28
2022-09-09T03:12:05.062Z,3.83
2022-09-09T03:14:34.023Z,4.15
2022-09-09T03:17:03.223Z,4.28
2022-09-09T03:19:36.213Z,3.42
2022-09-09T03:22:05.390Z,3.25
2022-09-09T03:24:35.234Z,3.92
2022-09-09T03:27:04.629Z,3.45
2022-09-09T03:29:31.828Z,2.80
2022-09-09T03:32:02.264Z,3.67
2022-09-09T03:34:29.319Z,3.60
2022-09-09T03:36:58.897Z,3.92
2022-09-09T03:39:27.432Z,3.17
2022-09-09T03:41:54.513Z,4.18
2022-09-09T03:44:22.293Z,3.78
2022-09-09T03:46:49.315Z,3.95
2022-09-09T03:49:17.646Z,3.47
2022-09-09T03:51:45.194Z,3.60
2022-09-09T03:54:14.476Z,3.13
2022-09-09T03:56:42.706Z,2.35
2022-09-09T03:59:12.332Z,3.50
2022-09-09T04:01:40.052Z,2.92
2022-09-09T04:04:07.452Z,3.00
2022-09-09T04:06:35.007Z,2.88
2022-09-09T04:09:04.183Z,3.35
2022-09-09T04:11:32.303Z,2.97
2022-09-09T04:14:00.322Z,3.30
2022-09-09T04:16:28.751Z,2.60
2022-09-09T04:18:56.990Z,3.42
2022-09-09T04:21:24.172Z,3.03
2022-09-09T04:23:52.205Z,2.95
2022-09-09T04:26:21.034Z,2.60
2022-09-09T04:28:48.053Z,2.20
2022-09-09T04:31:23.789Z,2.58
2022-09-09T04:33:53.944Z,2.55
2022-09-09T04:36:22.060Z,1.73
2022-09-09T04:38:50.939Z,2.30
2022-09-09T04:41:18.466Z,1.35
2022-09-09T04:43:48.681Z,1.55
2022-09-09T04:46:18.319Z,1.40
2022-09-09T04:48:45.980Z,1.80
2022-09-09T04:51:14.904Z,3.97
2022-09-09T04:53:43.463Z,3.08
2022-09-09T04:56:14.899Z,3.88
2022-09-09T04:58:46.693Z,4.03
2022-09-09T05:01:20.909Z,4.75
2022-09-09T05:03:49.280Z,4.47
2022-09-09T05:06:22.431Z,4.75
2022-09-09T05:08:52.055Z,4.40
2022-09-09T05:11:25.435Z,3.47
2022-09-09T05:13:54.868Z,3.50
2022-09-09T05:16:22.421Z,3.28
2022-09-09T05:18:51.519Z,2.47
2022-09-09T05:21:21.091Z,2.42
2022-09-09T05:23:48.279Z,2.53
2022-09-09T05:26:18.271Z,2.05
2022-09-09T05:28:48.395Z,2.33
2022-09-09T05:31:18.133Z,2.50
2022-09-09T05:33:50.213Z,2.53
2022-09-09T05:36:19.526Z,1.50
2022-09-09T05:38:48.730Z,1.10
2022-09-09T05:41:18.771Z,1.77
2022-09-09T05:43:47.934Z,1.58
2022-09-09T05:46:18.552Z,1.15
2022-09-09T05:48:48.500Z,1.35
2022-09-09T05:51:18.907Z,1.23
2022-09-09T05:53:46.794Z,0.88
2022-09-09T05:56:23.328Z,0.70
2022-09-09T05:58:50.868Z,0.90
2022-09-09T06:01:27.816Z,0.90
2022-09-09T06:03:55.942Z,1.80
2022-09-09T06:06:27.070Z,1.25
2022-09-09T06:09:01.250Z,1.05
2022-09-09T06:11:36.911Z,0.70
2022-09-09T06:14:04.711Z,1.10
2022-09-09T06:16:33.610Z,0.70
2022-09-09T06:19:01.774Z,1.08
2022-09-09T06:21:32.106Z,0.63
2022-09-09T06:24:01.470Z,1.20
2022-09-09T06:26:31.744Z,1.27
2022-09-09T06:29:00.594Z,1.10
2022-09-09T06:31:31.503Z,1.00
2022-09-09T06:34:03.196Z,1.48
2022-09-09T06:36:33.258Z,1.67
2022-09-09T06:39:01.736Z,1.20
2022-09-09T06:41:33.853Z,0.90
2022-09-09T06:44:02.968Z,1.58
2022-09-09T06:46:36.572Z,0.88
2022-09-09T06:49:04.164Z,0.90
2022-09-09T06:51:34.702Z,1.10
2022-09-09T06:54:05.280Z,1.00
2022-09-09T06:56:42.953Z,1.35
2022-09-09T06:59:15.947Z,0.80
2022-09-09T07:01:55.629Z,1.70
2022-09-09T07:04:23.463Z,0.60
2022-09-09T07:06:50.505Z,0.85
2022-09-09T07:09:22.556Z,0.57
2022-09-09T07:11:53.738Z,5.70
2022-09-09T07:14:22.911Z,1.33
2022-09-09T07:16:59.456Z,1.02
2022-09-09T07:19:27.793Z,1.30
2022-09-09T07:21:56.211Z,1.10
2022-09-09T07:24:25.235Z,1.42
2022-09-09T07:26:53.065Z,1.23
2022-09-09T07:29:21.228Z,1.13
2022-09-09T07:31:49.737Z,1.98
2022-09-09T07:34:22.359Z,1.15
2022-09-09T07:36:49.792Z,0.80
2022-09-09T07:39:18.779Z,0.65
2022-09-09T07:41:50.211Z,1.10
2022-09-09T07:44:23.244Z,0.60
2022-09-09T07:46:55.444Z,1.05
2022-09-09T07:49:32.203Z,1.95
2022-09-09T07:52:01.160Z,0.82
2022-09-09T07:54:28.807Z,0.82
2022-09-09T07:56:56.044Z,1.30
2022-09-09T07:59:26.375Z,0.85
2022-09-09T08:01:55.694Z,1.20
2022-09-09T08:04:27.045Z,0.80
2022-09-09T08:07:00.345Z,0.85
2022-09-09T08:09:30.338Z,1.20
2022-09-09T08:12:07.927Z,1.23
2022-09-09T08:14:35.645Z,0.80
2022-09-09T08:17:03.426Z,1.27
2022-09-09T08:19:34.990Z,0.60
2022-09-09T08:22:03.894Z,0.47
2022-09-09T08:24:33.062Z,0.90
2022-09-09T08:27:00.319Z,0.60
2022-09-09T08:29:29.518Z,0.75
2022-09-09T08:32:00.802Z,0.65
2022-09-09T08:34:29.087Z,0.77
2022-09-09T08:36:57.990Z,1.20
2022-09-09T08:39:33.300Z,3.00
2022-09-09T08:42:01.340Z,0.93
2022-09-09T08:44:38.827Z,1.00
2022-09-09T08:47:46.464Z,1.42
2022-09-09T08:50:16.613Z,0.60
2022-09-09T08:52:52.998Z,1.10
2022-09-09T08:55:44.367Z,0.82
2022-09-09T08:58:16.612Z,0.88
2022-09-09T09:01:03.414Z,0.82
2022-09-09T09:03:53.716Z,0.90
2022-09-09T09:06:37.175Z,0.40
2022-09-09T09:09:31.350Z,0.90
2022-09-09T09:12:02.034Z,0.60
2022-09-09T09:14:36.517Z,0.77
2022-09-09T09:17:10.761Z,0.80
2022-09-09T09:19:41.102Z,1.15
2022-09-09T09:22:39.141Z,0.75
2022-09-09T09:25:31.665Z,1.30
2022-09-09T09:28:18.358Z,0.55
2022-09-09T09:31:04.342Z,0.77
2022-09-09T09:33:36.233Z,1.02
2022-09-09T09:36:04.233Z,0.70
2022-09-09T09:41:33.626Z,0.50
2022-09-09T09:44:02.472Z,0.75
2022-09-09T09:46:30.217Z,0.93
2022-09-09T09:49:10.503Z,0.57
2022-09-09T09:51:38.663Z,0.50
2022-09-09T09:54:30.401Z,0.75
2022-09-09T09:57:12.783Z,0.85
2022-09-09T09:59:42.165Z,0.60
2022-09-09T10:02:19.179Z,0.82
2022-09-09T10:04:49.891Z,0.35
2022-09-09T10:07:22.113Z,0.60
2022-09-09T10:09:54.980Z,1.45
2022-09-09T10:12:37.002Z,1.08
2022-09-09T10:15:35.512Z,3.28
2022-09-09T10:18:21.201Z,0.43
2022-09-09T10:21:27.955Z,0.57
2022-09-09T10:24:06.670Z,0.90
2022-09-09T10:26:50.576Z,0.57
2022-09-09T10:29:17.903Z,0.70
2022-09-09T10:31:53.738Z,0.52
2022-09-09T10:34:38.710Z,0.30
2022-09-09T10:37:17.970Z,1.08
2022-09-09T10:39:45.042Z,0.38
2022-09-09T10:42:17.658Z,0.60
2022-09-09T10:47:27.881Z,1.33
2022-09-09T10:50:12.357Z,1.13
2022-09-09T10:53:00.779Z,0.90
2022-09-09T10:55:38.259Z,2.05
2022-09-09T10:58:08.355Z,1.00
2022-09-09T11:00:41.212Z,0.70
2022-09-09T11:03:20.378Z,0.30
2022-09-09T11:05:53.536Z,0.50
2022-09-09T11:08:24.139Z,0.75
2022-09-09T11:10:53.439Z,0.70
2022-09-09T11:13:32.681Z,0.60
2022-09-09T11:16:06.075Z,0.82
2022-09-09T11:18:40.947Z,0.60
2022-09-09T11:21:24.834Z,0.50
2022-09-09T11:24:05.851Z,0.77
2022-09-09T11:26:40.484Z,0.85
2022-09-09T11:29:35.170Z,0.73
2022-09-09T11:32:35.493Z,0.88
2022-09-09T11:35:27.316Z,0.77
2022-09-09T11:38:12.305Z,0.90
2022-09-09T11:40:40.154Z,0.45
2022-09-09T11:43:19.573Z,0.43
2022-09-09T11:45:58.710Z,0.50
2022-09-09T11:48:37.506Z,0.70
2022-09-09T11:51:12.134Z,0.60
2022-09-09T11:54:06.044Z,0.73
2022-09-09T11:56:45.225Z,0.50
2022-09-09T11:59:25.648Z,0.50
2022-09-09T12:01:57.976Z,0.30
2022-09-09T12:04:25.534Z,0.50
2022-09-09T12:07:03.478Z,0.50
2022-09-09T12:09:41.307Z,0.40
2022-09-09T12:12:23.610Z,0.40
2022-09-09T12:15:01.710Z,0.70
2022-09-09T12:17:34.214Z,0.50
2022-09-09T12:20:14.553Z,1.15
2022-09-09T12:22:54.900Z,0.60
2022-09-09T12:25:27.822Z,0.30
2022-09-09T12:28:15.864Z,1.13
2022-09-09T12:30:57.264Z,0.50
2022-09-09T12:33:24.785Z,0.35
2022-09-09T12:36:00.413Z,0.80
2022-09-09T12:38:35.727Z,0.50
2022-09-09T12:41:02.796Z,0.40
2022-09-09T12:43:29.967Z,0.70
2022-09-09T12:46:09.781Z,0.35
2022-09-09T12:48:42.924Z,0.40
2022-09-09T12:51:26.136Z,0.30
2022-09-09T12:53:53.609Z,0.40
2022-09-09T12:56:23.748Z,0.50
2022-09-09T12:58:52.975Z,0.73
2022-09-09T13:01:26.590Z,0.60
2022-09-09T13:03:54.140Z,0.63
2022-09-09T13:06:29.691Z,0.35
2022-09-09T13:09:01.877Z,0.38
2022-09-09T13:11:32.310Z,0.52
2022-09-09T13:14:00.239Z,0.70
2022-09-09T13:16:32.479Z,0.47
2022-09-09T13:19:02.573Z,0.38
2022-09-09T13:21:35.364Z,1.15
2022-09-09T13:24:05.741Z,0.43
2022-09-09T13:26:32.903Z,0.73
2022-09-09T13:29:18.839Z,0.30
2022-09-09T13:31:46.486Z,0.38
2022-09-09T13:34:34.518Z,0.28
2022-09-09T13:37:06.806Z,0.30
2022-09-09T13:39:37.339Z,0.63
2022-09-09T13:42:05.450Z,0.60
2022-09-09T13:44:39.826Z,0.52
2022-09-09T13:47:10.556Z,0.38
2022-09-09T13:49:37.798Z,0.40
2022-09-09T13:52:09.849Z,0.45
2022-09-09T13:54:36.892Z,0.40
2022-09-09T13:57:05.603Z,0.25
2022-09-09T13:59:54.304Z,0.57
2022-09-09T14:02:20.357Z,0.38
2022-09-09T14:04:48.239Z,0.22
2022-09-09T14:07:17.348Z,0.40
2022-09-09T14:09:44.612Z,0.95
2022-09-09T14:12:16.217Z,0.60
2022-09-09T14:14:43.675Z,0.50
2022-09-09T14:17:10.732Z,0.25
2022-09-09T14:19:40.708Z,0.40
2022-09-09T14:22:07.719Z,0.50
2022-09-09T14:24:35.063Z,0.50
2022-09-09T14:27:02.182Z,0.20
2022-09-09T14:29:29.241Z,0.70
2022-09-09T14:31:56.249Z,0.63
2022-09-09T14:34:23.233Z,0.50
2022-09-09T14:36:50.540Z,0.70
2022-09-09T14:39:17.537Z,1.35
2022-09-09T14:41:44.517Z,0.32
2022-09-09T14:44:11.507Z,0.88
2022-09-09T14:46:38.987Z,0.52
2022-09-09T14:49:05.968Z,1.02
2022-09-09T14:51:32.990Z,1.45
2022-09-09T14:54:00.518Z,0.90
2022-09-09T14:56:30.528Z,0.20
2022-09-09T14:58:59.642Z,0.60
2022-09-09T15:01:29.362Z,0.60
2022-09-09T15:04:05.643Z,0.43
2022-09-09T15:06:35.287Z,0.45
2022-09-09T15:09:02.633Z,0.60
2022-09-09T15:11:38.632Z,0.47
2022-09-09T15:14:07.848Z,0.45
2022-09-09T15:16:35.607Z,0.60
2022-09-09T15:19:03.937Z,0.75
2022-09-09T15:21:33.990Z,0.70
2022-09-09T15:24:01.352Z,0.73
2022-09-09T15:26:29.302Z,0.88
2022-09-09T15:28:56.377Z,0.80
2022-09-09T15:31:25.230Z,0.60
2022-09-09T15:33:54.848Z,1.20
2022-09-09T15:36:24.074Z,0.65
2022-09-09T15:38:52.448Z,0.90
2022-09-09T15:41:21.356Z,0.30
2022-09-09T15:43:51.157Z,0.40
2022-09-09T15:46:18.142Z,0.43
2022-09-09T15:48:47.272Z,0.50
2022-09-09T15:51:37.996Z,0.30
2022-09-09T15:54:03.063Z,0.65
2022-09-09T15:56:33.517Z,0.70
2022-09-09T15:59:01.024Z,0.30
2022-09-09T16:01:28.793Z,0.60
2022-09-09T16:03:56.196Z,0.47
2022-09-09T16:06:25.084Z,1.77
2022-09-09T16:08:53.814Z,0.45
2022-09-09T16:11:32.740Z,0.63
2022-09-09T16:14:00.366Z,0.40
2022-09-09T16:16:30.416Z,0.55
2022-09-09T16:19:00.088Z,0.70
2022-09-09T16:21:30.187Z,0.63
2022-09-09T16:24:00.385Z,0.93
2022-09-09T16:26:28.723Z,0.77
2022-09-09T16:28:55.995Z,0.73
2022-09-09T16:31:25.010Z,0.80
2022-09-09T16:33:52.920Z,0.70
2022-09-09T16:36:26.192Z,0.77
2022-09-09T16:38:58.415Z,1.00
2022-09-09T16:41:27.759Z,0.98
2022-09-09T16:44:00.282Z,0.70
2022-09-09T16:46:29.196Z,0.55
2022-09-09T16:49:01.222Z,1.00
2022-09-09T16:51:40.288Z,0.98
2022-09-09T16:54:08.710Z,0.55
2022-09-09T16:56:39.368Z,0.43
2022-09-09T16:59:09.412Z,0.93
2022-09-09T17:01:39.197Z,0.65
2022-09-09T17:04:09.503Z,0.93
2022-09-09T17:06:39.854Z,0.60
2022-09-09T17:09:09.681Z,0.57
2022-09-09T17:11:38.314Z,0.60
2022-09-09T17:14:06.727Z,0.68
2022-09-09T17:16:37.125Z,0.60
2022-09-09T17:19:04.663Z,0.47
2022-09-09T17:21:33.193Z,0.32
2022-09-09T17:24:00.705Z,0.45
2022-09-09T17:26:30.967Z,0.43
2022-09-09T17:28:59.876Z,0.40
2022-09-09T17:31:29.351Z,0.50
2022-09-09T17:33:56.840Z,0.30
2022-09-09T17:36:27.092Z,0.57
2022-09-09T17:38:54.674Z,0.20
2022-09-09T17:41:40.535Z,0.80
2022-09-09T17:46:43.171Z,0.35
2022-09-09T17:49:15.706Z,0.25
2022-09-09T17:51:44.229Z,0.30
2022-09-09T17:54:13.943Z,0.30
2022-09-09T17:56:42.131Z,0.57
2022-09-09T17:59:12.059Z,0.43
2022-09-09T18:01:41.840Z,1.27
2022-09-09T18:04:10.485Z,1.20
2022-09-09T18:06:43.884Z,0.70
2022-09-09T18:09:13.778Z,0.68
2022-09-09T18:11:45.125Z,1.00
2022-09-09T18:14:15.535Z,0.30
2022-09-09T18:16:42.779Z,0.80
2022-09-09T18:19:15.071Z,0.68
2022-09-09T18:21:43.059Z,0.63
2022-09-09T18:24:12.162Z,0.45
2022-09-09T18:26:40.606Z,0.32
2022-09-09T18:29:12.779Z,0.35
2022-09-09T18:31:42.330Z,0.25
2022-09-09T18:34:12.643Z,0.60
2022-09-09T18:36:45.063Z,0.52
2022-09-09T18:39:14.999Z,0.30
2022-09-09T18:41:48.174Z,0.70
2022-09-09T18:44:18.529Z,0.60
2022-09-09T18:46:46.594Z,0.90
2022-09-09T18:49:15.236Z,0.40
2022-09-09T18:51:44.137Z,0.60
2022-09-09T18:54:18.471Z,0.90
2022-09-09T18:56:46.173Z,1.10
2022-09-09T18:59:19.032Z,0.40
2022-09-09T19:01:48.192Z,0.50
2022-09-09T19:04:15.326Z,0.43
2022-09-09T19:06:45.007Z,0.80
2022-09-09T19:09:13.606Z,0.63
2022-09-09T19:11:41.168Z,0.93
2022-09-09T19:14:11.395Z,0.75
2022-09-09T19:16:40.517Z,0.50
2022-09-09T19:19:12.398Z,0.60
2022-09-09T19:21:40.424Z,0.52
2022-09-09T19:24:12.216Z,0.30
2022-09-09T19:26:44.826Z,0.80
2022-09-09T19:31:55.365Z,0.60
2022-09-09T19:34:31.191Z,0.95
2022-09-09T19:36:58.194Z,1.05
2022-09-09T19:39:25.197Z,0.85
2022-09-09T19:41:52.219Z,1.40
2022-09-09T19:44:19.205Z,0.88
2022-09-09T19:46:47.210Z,0.77
2022-09-09T19:49:15.476Z,0.75
2022-09-09T19:51:43.346Z,2.25
2022-09-09T19:54:13.965Z,1.05
2022-09-09T19:56:42.299Z,1.17
2022-09-09T19:59:11.680Z,0.70
2022-09-09T20:01:46.519Z,0.50
2022-09-09T20:04:14.557Z,0.50
2022-09-09T20:06:44.276Z,0.43
2022-09-09T20:09:17.152Z,0.98
2022-09-09T20:11:45.731Z,0.57
2022-09-09T20:14:13.466Z,0.68
2022-09-09T20:16:41.335Z,0.70
2022-09-09T20:19:11.515Z,0.55
2022-09-09T20:21:47.305Z,0.40
2022-09-09T20:24:18.643Z,0.38
2022-09-09T20:26:48.179Z,1.95
2022-09-09T20:29:18.468Z,0.80
2022-09-09T20:31:46.381Z,0.60
2022-09-09T20:34:16.481Z,1.02
2022-09-09T20:36:43.663Z,0.80
2022-09-09T20:39:20.856Z,0.60
2022-09-09T20:41:48.589Z,0.80
2022-09-09T20:44:18.755Z,0.90
2022-09-09T20:46:48.243Z,1.13
2022-09-09T20:49:20.419Z,0.45
2022-09-09T20:51:49.662Z,0.50
2022-09-09T20:54:19.830Z,0.50
2022-09-09T20:56:48.026Z,0.50
2022-09-09T20:59:21.394Z,0.68
2022-09-09T21:01:49.092Z,0.73
2022-09-09T21:04:18.629Z,0.50
2022-09-09T21:06:46.692Z,0.95
2022-09-09T21:09:14.587Z,0.75
2022-09-09T21:11:42.115Z,0.60
2022-09-09T21:14:10.045Z,0.50
2022-09-09T21:16:37.080Z,0.30
2022-09-09T21:19:04.508Z,0.68
2022-09-09T21:21:31.555Z,0.57
2022-09-09T21:24:00.370Z,1.17
2022-09-09T21:26:27.603Z,0.40
2022-09-09T21:28:55.786Z,0.30
2022-09-09T21:31:27.972Z,0.40
2022-09-09T21:36:28.110Z,0.60
2022-09-09T21:38:56.283Z,0.57
2022-09-09T21:41:23.391Z,1.38
2022-09-09T21:43:54.064Z,0.65
2022-09-09T21:46:23.104Z,0.35
2022-09-09T21:48:50.712Z,0.50
2022-09-09T21:51:18.143Z,0.68
2022-09-09T21:53:45.504Z,0.63
2022-09-09T21:56:15.747Z,0.40
2022-09-09T21:58:43.134Z,0.43
2022-09-09T22:01:12.651Z,0.40
2022-09-09T22:03:40.365Z,0.60
2022-09-09T22:06:08.779Z,0.30
2022-09-09T22:08:36.490Z,0.70
2022-09-09T22:11:13.891Z,0.70
2022-09-09T22:13:42.501Z,0.75
2022-09-09T22:16:12.250Z,0.93
2022-09-09T22:18:40.578Z,0.50
2022-09-09T22:21:12.886Z,0.52
2022-09-09T22:23:39.912Z,0.60
2022-09-09T22:26:07.477Z,0.40
2022-09-09T22:28:35.767Z,1.20
2022-09-09T22:31:02.921Z,0.90
2022-09-09T22:33:30.104Z,0.60
2022-09-09T22:35:57.196Z,0.60
2022-09-09T22:38:24.181Z,0.60
2022-09-09T22:40:51.801Z,0.30
2022-09-09T22:43:21.479Z,0.40
2022-09-09T22:45:49.958Z,0.70
2022-09-09T22:48:17.271Z,0.50
2022-09-09T22:50:45.045Z,0.55
2022-09-09T22:53:17.273Z,0.60
2022-09-09T22:55:55.631Z,1.13
2022-09-09T22:58:23.041Z,0.32
2022-09-09T23:00:51.208Z,0.45
2022-09-09T23:03:18.975Z,0.30
2022-09-09T23:05:54.995Z,0.77
2022-09-09T23:08:23.183Z,0.60
2022-09-09T23:10:50.454Z,0.50
2022-09-09T23:13:17.456Z,0.60
2022-09-09T23:15:46.933Z,0.45
2022-09-09T23:18:14.623Z,0.65
2022-09-09T23:20:43.074Z,0.60
2022-09-09T23:23:13.191Z,0.50
2022-09-09T23:25:40.243Z,0.70
2022-09-09T23:28:07.251Z,0.50
2022-09-09T23:30:34.274Z,0.70
2022-09-09T23:33:01.289Z,0.50
2022-09-09T23:35:28.396Z,0.70
2022-09-09T23:37:55.406Z,0.70
2022-09-09T23:40:23.031Z,0.60
2022-09-09T23:42:50.359Z,0.88
2022-09-09T23:45:17.938Z,0.55
2022-09-09T23:47:45.631Z,0.55
2022-09-09T23:50:13.086Z,0.98
2022-09-09T23:52:43.434Z,0.70
2022-09-09T23:55:10.764Z,0.60
2022-09-09T23:57:37.831Z,0.63
